Terminal Aerodrome Forecast
Issued by NWS Billings, MT

Home | Current Version | Previous Version | Text Only | Print | Product List | Glossary On
Versions: 1 2 3 4 5 6 7 8 9 10 11 12 13 14 15 16 17 18 19 20 21 22 23 24 25 26 27 28 29 30 31 32 33
000
FTUS45 KBYZ 260535
TAFBIL
TAF
KBIL 260535Z 2606/2706 VRB05KT P6SM FEW040 BKN200
     FM261000 03010KT P6SM VCSH BKN040 OVC120
     FM261400 03010KT 4SM -RA BR SCT006 OVC020
      TEMPO 2614/2618 2SM -RA BR OVC006
     FM262200 03012KT P6SM -RA SCT010 OVC030
     FM270300 VRB05KT P6SM SCT030 SCT150=

USA.gov is the U.S. government's official web portal to all federal, state and local government web resources and services.